Time;durP1;ratioP1;P1;durP2;ratioP2;P2;SDS_P1;SDS_P2;PMS_P1;PMS_P2;Temp;Humidity;BMP_temperature;BMP_pressure;BME280_temperature;BME280_humidity;BME280_pressure;Samples;Min_cycle;Max_cycle;Signal;HPM_P1;HPM_P2
2024/01/07 00:01:55;;;;;;;7.25;4.07;;;;;;;;;;4956301;28;20146;-73
2024/01/07 00:04:22;;;;;;;8.23;4.28;;;;;;;;;;4955160;28;20727;-73
2024/01/07 00:06:51;;;;;;;6.22;4.10;;;;;;;;;;4951455;28;20058;-74
2024/01/07 00:09:18;;;;;;;8.77;3.78;;;;;;;;;;4952272;28;20058;-74
2024/01/07 00:11:45;;;;;;;10.73;4.70;;;;;;;;;;4953178;28;20058;-74
2024/01/07 00:14:12;;;;;;;8.05;4.18;;;;;;;;;;4952492;28;20058;-74
2024/01/07 00:16:41;;;;;;;9.10;3.75;;;;;;;;;;4956734;28;20055;-74
2024/01/07 00:19:08;;;;;;;9.85;4.38;;;;;;;;;;4950069;28;20047;-74
2024/01/07 00:21:36;;;;;;;9.30;4.45;;;;;;;;;;4952092;28;20042;-73
2024/01/07 00:24:05;;;;;;;6.97;3.88;;;;;;;;;;4952801;28;20058;-74
2024/01/07 00:26:32;;;;;;;6.38;3.72;;;;;;;;;;4951938;28;20058;-73
2024/01/07 00:28:59;;;;;;;9.98;4.43;;;;;;;;;;4951161;28;20042;-74
2024/01/07 00:31:26;;;;;;;7.97;4.18;;;;;;;;;;4969188;28;20055;-73
2024/01/07 00:33:53;;;;;;;9.40;4.15;;;;;;;;;;4952116;28;20055;-73
2024/01/07 00:36:21;;;;;;;8.15;4.05;;;;;;;;;;4950541;28;20065;-74
2024/01/07 00:38:48;;;;;;;8.35;4.03;;;;;;;;;;4953750;28;20050;-74
2024/01/07 00:41:17;;;;;;;9.02;4.35;;;;;;;;;;4951966;28;20058;-73
2024/01/07 00:43:44;;;;;;;7.72;4.07;;;;;;;;;;4952781;28;20098;-74
2024/01/07 00:46:11;;;;;;;8.40;4.47;;;;;;;;;;4950916;28;20058;-74
2024/01/07 00:48:38;;;;;;;6.05;3.83;;;;;;;;;;4953289;28;20043;-74
2024/01/07 00:51:06;;;;;;;7.55;3.90;;;;;;;;;;4952077;28;20051;-74
2024/01/07 00:53:33;;;;;;;10.40;4.32;;;;;;;;;;4973734;28;20050;-74
2024/01/07 00:56:00;;;;;;;9.07;4.40;;;;;;;;;;4968085;28;20047;-73
2024/01/07 00:58:29;;;;;;;9.68;4.43;;;;;;;;;;4956402;28;20061;-74
2024/01/07 01:00:56;;;;;;;12.50;4.50;;;;;;;;;;4969325;28;20042;-74
2024/01/07 01:03:24;;;;;;;9.18;4.10;;;;;;;;;;4956257;28;20066;-73
2024/01/07 01:05:51;;;;;;;10.30;4.15;;;;;;;;;;4951755;28;20426;-73
2024/01/07 01:08:18;;;;;;;7.35;3.95;;;;;;;;;;4956068;28;20055;-73
2024/01/07 01:10:46;;;;;;;14.25;4.63;;;;;;;;;;4954379;28;20066;-73
2024/01/07 01:13:13;;;;;;;6.70;3.80;;;;;;;;;;4946457;28;20055;-73
2024/01/07 01:15:41;;;;;;;7.30;3.50;;;;;;;;;;4958705;28;20053;-73
2024/01/07 01:18:09;;;;;;;8.40;3.60;;;;;;;;;;4953458;28;20045;-73
2024/01/07 01:20:36;;;;;;;7.97;4.07;;;;;;;;;;4948416;28;20058;-73
2024/01/07 01:23:03;;;;;;;8.52;4.05;;;;;;;;;;4956401;28;20078;-73
2024/01/07 01:25:30;;;;;;;9.60;4.18;;;;;;;;;;4954366;28;20050;-73
2024/01/07 01:27:58;;;;;;;8.13;3.85;;;;;;;;;;4943871;28;20047;-73
2024/01/07 01:30:27;;;;;;;9.57;4.43;;;;;;;;;;4949239;28;20059;-73
2024/01/07 01:32:56;;;;;;;7.53;4.15;;;;;;;;;;4951748;28;20081;-73
2024/01/07 01:35:23;;;;;;;10.60;5.00;;;;;;;;;;4943121;28;20058;-73
2024/01/07 01:37:50;;;;;;;13.63;4.25;;;;;;;;;;4947914;28;20047;-73
2024/01/07 01:40:18;;;;;;;9.63;4.45;;;;;;;;;;4961769;28;20054;-73
2024/01/07 01:42:46;;;;;;;9.60;4.43;;;;;;;;;;4940099;28;20051;-73
2024/01/07 01:45:13;;;;;;;10.23;4.97;;;;;;;;;;4949251;28;20061;-73
2024/01/07 01:47:41;;;;;;;8.23;4.45;;;;;;;;;;4945674;28;20070;-73
2024/01/07 01:50:10;;;;;;;11.75;4.75;;;;;;;;;;4950875;28;20070;-73
2024/01/07 01:52:37;;;;;;;9.05;4.50;;;;;;;;;;4944993;28;20062;-74
2024/01/07 01:55:05;;;;;;;10.48;4.50;;;;;;;;;;4949256;28;20055;-73
2024/01/07 01:57:34;;;;;;;9.52;4.43;;;;;;;;;;4943050;28;20433;-73
2024/01/07 02:00:04;;;;;;;11.18;4.85;;;;;;;;;;4949671;28;20109;-74
2024/01/07 02:02:33;;;;;;;10.43;4.05;;;;;;;;;;4945733;28;20609;-73
2024/01/07 02:05:01;;;;;;;8.27;4.07;;;;;;;;;;4949081;28;20053;-73
2024/01/07 02:07:31;;;;;;;10.43;4.20;;;;;;;;;;4960252;28;20163;-73
2024/01/07 02:09:58;;;;;;;10.13;3.85;;;;;;;;;;4955533;28;20167;-73
2024/01/07 02:12:26;;;;;;;7.93;4.13;;;;;;;;;;4949909;28;20059;-73
2024/01/07 02:14:53;;;;;;;12.85;4.28;;;;;;;;;;4939529;28;20055;-73
2024/01/07 02:17:21;;;;;;;7.25;3.53;;;;;;;;;;4943704;28;20051;-73
2024/01/07 02:19:48;;;;;;;6.00;3.22;;;;;;;;;;4950665;28;20050;-73
2024/01/07 02:22:15;;;;;;;9.90;4.07;;;;;;;;;;4952039;28;20053;-73
2024/01/07 02:24:44;;;;;;;9.52;3.45;;;;;;;;;;4950646;28;20046;-73
2024/01/07 02:27:11;;;;;;;7.80;4.20;;;;;;;;;;4953697;28;20059;-73
2024/01/07 02:29:38;;;;;;;7.43;3.40;;;;;;;;;;4945418;28;20425;-73
2024/01/07 02:32:06;;;;;;;8.18;3.10;;;;;;;;;;4949871;28;20058;-73
2024/01/07 02:34:33;;;;;;;9.95;3.88;;;;;;;;;;4944880;28;20062;-74
2024/01/07 02:37:01;;;;;;;9.88;3.60;;;;;;;;;;4945917;28;20418;-73
2024/01/07 02:39:28;;;;;;;8.00;3.50;;;;;;;;;;4941693;28;20047;-73
2024/01/07 02:41:56;;;;;;;9.35;3.33;;;;;;;;;;4948827;28;20050;-73
2024/01/07 02:44:24;;;;;;;5.55;3.15;;;;;;;;;;4951935;28;20053;-73
2024/01/07 02:46:51;;;;;;;8.70;3.42;;;;;;;;;;4941987;28;20558;-73
2024/01/07 02:49:18;;;;;;;10.35;3.97;;;;;;;;;;4940486;28;20066;-73
2024/01/07 02:51:49;;;;;;;7.78;3.30;;;;;;;;;;4946135;28;20570;-73
2024/01/07 02:54:16;;;;;;;8.23;2.83;;;;;;;;;;4941492;28;20388;-73
2024/01/07 02:56:44;;;;;;;9.18;3.25;;;;;;;;;;4946628;28;20394;-72
2024/01/07 02:59:15;;;;;;;11.18;3.58;;;;;;;;;;4951035;28;20046;-73
2024/01/07 03:01:42;;;;;;;10.05;3.92;;;;;;;;;;4962930;28;20051;-73
2024/01/07 03:04:09;;;;;;;6.78;3.35;;;;;;;;;;4951741;28;20163;-73
2024/01/07 03:06:37;;;;;;;8.00;3.20;;;;;;;;;;4949775;28;21166;-73
2024/01/07 03:09:04;;;;;;;6.70;3.00;;;;;;;;;;4949768;28;20470;-73
2024/01/07 03:11:31;;;;;;;9.57;3.20;;;;;;;;;;4949993;28;20047;-73
2024/01/07 03:13:59;;;;;;;6.32;2.97;;;;;;;;;;4941566;28;20138;-73
2024/01/07 03:16:27;;;;;;;7.43;3.15;;;;;;;;;;4943691;28;20047;-73
2024/01/07 03:18:55;;;;;;;5.50;2.67;;;;;;;;;;4941962;28;20043;-73
2024/01/07 03:21:23;;;;;;;6.35;2.70;;;;;;;;;;4948860;28;20063;-73
2024/01/07 03:23:50;;;;;;;10.63;3.80;;;;;;;;;;4941592;28;20055;-73
2024/01/07 03:26:18;;;;;;;7.65;2.55;;;;;;;;;;4947157;28;20129;-73
2024/01/07 03:28:46;;;;;;;6.28;3.05;;;;;;;;;;4939710;28;20058;-73
2024/01/07 03:31:14;;;;;;;4.63;2.58;;;;;;;;;;4939067;28;20082;-73
2024/01/07 03:33:43;;;;;;;5.65;2.45;;;;;;;;;;4945889;28;20051;-73
2024/01/07 03:36:11;;;;;;;3.75;2.40;;;;;;;;;;4953380;28;20521;-73
2024/01/07 03:38:38;;;;;;;7.43;2.35;;;;;;;;;;4957645;28;20047;-73
2024/01/07 03:41:05;;;;;;;5.93;2.38;;;;;;;;;;4950051;28;20051;-73
2024/01/07 03:43:33;;;;;;;5.93;1.80;;;;;;;;;;4942777;28;20050;-73
2024/01/07 03:46:01;;;;;;;7.97;2.28;;;;;;;;;;4944051;28;20050;-73
2024/01/07 03:48:28;;;;;;;5.03;1.90;;;;;;;;;;4939573;28;20047;-73
2024/01/07 03:50:56;;;;;;;4.82;2.10;;;;;;;;;;4941846;28;20537;-73
2024/01/07 03:53:24;;;;;;;4.05;2.05;;;;;;;;;;4944764;28;20509;-73
2024/01/07 03:55:51;;;;;;;5.10;2.67;;;;;;;;;;4940989;28;20051;-73
2024/01/07 03:58:18;;;;;;;4.68;1.80;;;;;;;;;;4938095;28;20052;-73
2024/01/07 04:00:45;;;;;;;5.25;1.70;;;;;;;;;;4948742;28;20058;-73
2024/01/07 04:03:13;;;;;;;3.28;1.63;;;;;;;;;;4943317;28;20315;-73
2024/01/07 04:05:40;;;;;;;6.38;1.55;;;;;;;;;;4940488;28;20059;-73
2024/01/07 04:08:10;;;;;;;3.35;1.45;;;;;;;;;;4946980;28;20061;-73
2024/01/07 04:10:38;;;;;;;3.90;1.50;;;;;;;;;;4960597;28;20055;-73
2024/01/07 04:13:06;;;;;;;4.32;1.25;;;;;;;;;;4939397;28;20196;-73
2024/01/07 04:15:33;;;;;;;6.45;1.65;;;;;;;;;;4945527;28;20059;-73
2024/01/07 04:18:03;;;;;;;3.00;1.35;;;;;;;;;;4948204;28;20047;-73
2024/01/07 04:20:30;;;;;;;7.43;1.75;;;;;;;;;;4952971;28;20054;-73
2024/01/07 04:22:57;;;;;;;5.72;0.98;;;;;;;;;;4944074;28;20051;-73
2024/01/07 04:25:26;;;;;;;6.75;1.58;;;;;;;;;;4946043;28;20050;-73
2024/01/07 04:27:54;;;;;;;5.03;1.63;;;;;;;;;;4938348;28;20062;-73
2024/01/07 04:30:21;;;;;;;2.97;1.20;;;;;;;;;;4948933;28;20063;-73
2024/01/07 04:32:48;;;;;;;6.93;1.52;;;;;;;;;;4952795;28;20579;-73
2024/01/07 04:35:16;;;;;;;3.88;1.30;;;;;;;;;;4947187;28;20050;-73
2024/01/07 04:37:43;;;;;;;4.43;1.25;;;;;;;;;;4951799;28;20560;-73
2024/01/07 04:40:11;;;;;;;4.80;1.42;;;;;;;;;;4948531;28;20495;-73
2024/01/07 04:42:40;;;;;;;4.00;1.48;;;;;;;;;;4950494;28;20054;-73
2024/01/07 04:45:07;;;;;;;2.45;1.02;;;;;;;;;;4946210;28;20050;-73
2024/01/07 04:47:35;;;;;;;4.63;1.55;;;;;;;;;;4951758;28;20509;-73
2024/01/07 04:50:03;;;;;;;4.15;1.20;;;;;;;;;;4948524;28;20055;-73
2024/01/07 04:52:30;;;;;;;3.63;1.15;;;;;;;;;;4947473;28;20047;-73
2024/01/07 04:54:57;;;;;;;3.97;1.75;;;;;;;;;;4939069;28;20059;-73
2024/01/07 04:57:25;;;;;;;4.75;1.40;;;;;;;;;;4949956;28;20051;-73
2024/01/07 04:59:53;;;;;;;4.95;1.30;;;;;;;;;;4939202;28;20517;-73
2024/01/07 05:02:21;;;;;;;3.60;1.00;;;;;;;;;;4947330;28;20054;-73
2024/01/07 05:04:48;;;;;;;5.13;1.13;;;;;;;;;;4938129;28;20126;-73
2024/01/07 05:07:16;;;;;;;4.78;1.40;;;;;;;;;;4939214;28;20058;-73
2024/01/07 05:09:43;;;;;;;4.63;1.30;;;;;;;;;;4936663;28;20043;-73
2024/01/07 05:12:10;;;;;;;2.78;0.90;;;;;;;;;;4940519;28;20078;-73
2024/01/07 05:14:38;;;;;;;3.47;1.02;;;;;;;;;;4945194;28;20058;-73
2024/01/07 05:17:06;;;;;;;2.35;0.95;;;;;;;;;;4948682;28;20490;-73
2024/01/07 05:19:33;;;;;;;2.80;1.00;;;;;;;;;;4947390;28;20051;-73
2024/01/07 05:22:01;;;;;;;1.95;0.93;;;;;;;;;;4945491;28;20055;-73
2024/01/07 05:24:28;;;;;;;2.67;1.00;;;;;;;;;;4937993;28;20065;-73
2024/01/07 05:26:55;;;;;;;1.92;0.98;;;;;;;;;;4946152;28;20054;-72
2024/01/07 05:29:23;;;;;;;2.90;1.10;;;;;;;;;;4950334;28;20463;-73
2024/01/07 05:31:50;;;;;;;3.92;1.23;;;;;;;;;;4939856;28;20137;-73
2024/01/07 05:34:19;;;;;;;5.80;0.88;;;;;;;;;;4955512;28;20085;-73
2024/01/07 05:36:46;;;;;;;6.30;1.35;;;;;;;;;;4939916;28;20043;-73
2024/01/07 05:39:14;;;;;;;4.32;1.10;;;;;;;;;;4949667;28;20143;-73
2024/01/07 05:41:42;;;;;;;3.83;1.10;;;;;;;;;;4943664;28;20050;-73
2024/01/07 05:44:11;;;;;;;1.80;0.52;;;;;;;;;;4961348;28;20525;-73
2024/01/07 05:46:40;;;;;;;5.72;0.90;;;;;;;;;;4951738;28;20383;-73
2024/01/07 05:49:07;;;;;;;2.63;1.10;;;;;;;;;;4946016;28;20488;-73
2024/01/07 05:51:39;;;;;;;4.50;1.50;;;;;;;;;;4959578;28;20801;-73
2024/01/07 05:54:07;;;;;;;2.97;1.17;;;;;;;;;;4950637;28;20085;-73
2024/01/07 05:56:34;;;;;;;6.63;1.25;;;;;;;;;;4951221;28;20093;-73
2024/01/07 05:59:02;;;;;;;3.28;0.93;;;;;;;;;;4944356;28;20066;-73
2024/01/07 06:01:29;;;;;;;3.08;1.00;;;;;;;;;;4951723;28;20053;-72
2024/01/07 06:03:56;;;;;;;5.50;1.05;;;;;;;;;;4945597;28;20058;-73
2024/01/07 06:06:23;;;;;;;2.30;0.90;;;;;;;;;;4959281;28;20065;-73
2024/01/07 06:08:52;;;;;;;2.75;0.75;;;;;;;;;;4941371;28;20573;-73
2024/01/07 06:11:20;;;;;;;4.32;1.02;;;;;;;;;;4945266;28;20050;-73
2024/01/07 06:13:47;;;;;;;1.58;0.80;;;;;;;;;;4943042;28;20058;-73
2024/01/07 06:16:14;;;;;;;2.25;0.70;;;;;;;;;;4951610;28;20059;-73
2024/01/07 06:18:42;;;;;;;1.38;0.63;;;;;;;;;;4942967;28;20050;-73
2024/01/07 06:21:09;;;;;;;2.42;0.70;;;;;;;;;;4947968;28;20086;-73
2024/01/07 06:23:36;;;;;;;2.47;0.90;;;;;;;;;;4950035;28;20091;-73
2024/01/07 06:26:07;;;;;;;1.58;0.63;;;;;;;;;;4939062;28;20055;-73
2024/01/07 06:28:34;;;;;;;2.75;0.75;;;;;;;;;;4945006;28;20061;-73
2024/01/07 06:31:04;;;;;;;1.92;0.73;;;;;;;;;;4959578;28;20051;-73
2024/01/07 06:33:31;;;;;;;2.15;0.80;;;;;;;;;;4945612;28;20065;-73
2024/01/07 06:35:58;;;;;;;2.72;0.85;;;;;;;;;;4943200;28;20058;-73
2024/01/07 06:38:26;;;;;;;1.48;0.68;;;;;;;;;;4947185;28;20047;-73
2024/01/07 06:40:54;;;;;;;2.08;0.80;;;;;;;;;;4944212;28;20089;-73
2024/01/07 06:43:22;;;;;;;2.25;0.77;;;;;;;;;;4956749;28;20098;-73
2024/01/07 06:45:49;;;;;;;3.60;0.80;;;;;;;;;;4948294;28;20054;-73
2024/01/07 06:48:17;;;;;;;2.08;0.43;;;;;;;;;;4957279;28;20048;-73
2024/01/07 06:50:44;;;;;;;3.30;0.55;;;;;;;;;;4947506;28;20549;-73
2024/01/07 06:53:11;;;;;;;3.22;0.60;;;;;;;;;;4939556;28;20054;-73
2024/01/07 06:55:39;;;;;;;5.47;0.70;;;;;;;;;;4949855;28;20106;-73
2024/01/07 06:58:06;;;;;;;1.52;0.55;;;;;;;;;;4947800;28;20047;-73
2024/01/07 07:00:35;;;;;;;5.03;0.98;;;;;;;;;;4957096;28;20059;-73
2024/01/07 07:03:02;;;;;;;4.05;0.77;;;;;;;;;;4948077;28;20057;-73
2024/01/07 07:05:29;;;;;;;2.53;1.27;;;;;;;;;;4960395;28;20411;-73
2024/01/07 07:07:56;;;;;;;2.92;1.23;;;;;;;;;;4950075;28;20071;-73
2024/01/07 07:10:24;;;;;;;3.25;0.93;;;;;;;;;;4942791;28;20062;-73
2024/01/07 07:12:51;;;;;;;2.25;1.10;;;;;;;;;;4947836;28;20072;-73
2024/01/07 07:15:18;;;;;;;1.73;0.80;;;;;;;;;;4944841;28;20462;-73
2024/01/07 07:17:47;;;;;;;1.98;0.73;;;;;;;;;;4945123;28;20050;-73
2024/01/07 07:20:15;;;;;;;2.58;0.75;;;;;;;;;;4949613;28;20090;-73
2024/01/07 07:22:42;;;;;;;3.45;0.63;;;;;;;;;;4948764;28;20047;-73
2024/01/07 07:25:09;;;;;;;2.47;0.80;;;;;;;;;;4938638;28;20054;-72
2024/01/07 07:27:37;;;;;;;1.40;0.80;;;;;;;;;;4938695;28;20059;-73
2024/01/07 07:30:05;;;;;;;2.10;0.75;;;;;;;;;;4939492;28;20138;-73
2024/01/07 07:32:32;;;;;;;2.13;0.80;;;;;;;;;;4939753;28;20055;-73
2024/01/07 07:35:01;;;;;;;2.10;0.60;;;;;;;;;;4936495;28;20545;-73
2024/01/07 07:37:28;;;;;;;4.20;1.10;;;;;;;;;;4940960;28;20505;-73
2024/01/07 07:39:56;;;;;;;12.05;2.35;;;;;;;;;;4946843;28;20544;-73
2024/01/07 07:42:23;;;;;;;3.42;1.00;;;;;;;;;;4945141;28;20061;-73
2024/01/07 07:44:50;;;;;;;2.25;0.90;;;;;;;;;;4939585;28;20046;-73
2024/01/07 07:47:17;;;;;;;3.15;0.80;;;;;;;;;;4956875;28;20073;-73
2024/01/07 07:49:45;;;;;;;2.20;1.00;;;;;;;;;;4939154;28;20061;-73
2024/01/07 07:52:14;;;;;;;4.18;0.98;;;;;;;;;;4948552;28;20054;-73
2024/01/07 07:54:41;;;;;;;3.55;1.08;;;;;;;;;;4955443;28;20143;-73
2024/01/07 07:57:08;;;;;;;3.05;1.05;;;;;;;;;;4940308;28;20069;-73
2024/01/07 07:59:35;;;;;;;5.72;1.67;;;;;;;;;;4945429;28;20047;-73
2024/01/07 08:02:02;;;;;;;3.97;1.08;;;;;;;;;;4947611;28;20059;-73
2024/01/07 08:04:29;;;;;;;3.42;1.05;;;;;;;;;;4942555;28;20061;-73
2024/01/07 08:06:57;;;;;;;2.65;1.05;;;;;;;;;;4951488;28;20062;-73
2024/01/07 08:09:26;;;;;;;1.92;0.80;;;;;;;;;;4951335;28;20399;-73
2024/01/07 08:11:53;;;;;;;2.38;0.90;;;;;;;;;;4945117;28;20053;-73
2024/01/07 08:14:20;;;;;;;3.40;0.90;;;;;;;;;;4950822;28;20053;-73
2024/01/07 08:16:48;;;;;;;4.00;1.05;;;;;;;;;;4944574;28;21397;-73
2024/01/07 08:19:15;;;;;;;5.78;1.20;;;;;;;;;;4947760;28;20414;-73
2024/01/07 08:21:42;;;;;;;1.73;1.10;;;;;;;;;;4947312;28;20498;-73
2024/01/07 08:24:10;;;;;;;1.55;0.70;;;;;;;;;;4945595;28;20072;-73
2024/01/07 08:26:39;;;;;;;2.67;1.00;;;;;;;;;;4946375;28;20050;-73
2024/01/07 08:29:06;;;;;;;2.78;1.13;;;;;;;;;;4944414;28;20054;-73
2024/01/07 08:31:34;;;;;;;2.90;0.95;;;;;;;;;;4941096;28;20043;-73
2024/01/07 08:34:01;;;;;;;4.07;0.85;;;;;;;;;;4948746;28;20082;-73
2024/01/07 08:36:29;;;;;;;2.25;1.00;;;;;;;;;;4949755;28;20149;-73
2024/01/07 08:38:56;;;;;;;5.93;1.05;;;;;;;;;;4947321;28;20054;-73
2024/01/07 08:41:23;;;;;;;3.90;1.13;;;;;;;;;;4949037;28;20045;-73
2024/01/07 08:43:52;;;;;;;2.35;1.05;;;;;;;;;;4948653;28;20055;-73
2024/01/07 08:46:21;;;;;;;1.77;0.90;;;;;;;;;;4957563;28;20055;-73
2024/01/07 08:48:48;;;;;;;2.65;0.90;;;;;;;;;;4943590;28;20062;-73
2024/01/07 08:51:16;;;;;;;3.83;0.93;;;;;;;;;;4958249;28;20059;-72
2024/01/07 08:53:43;;;;;;;3.85;1.00;;;;;;;;;;4950267;28;20054;-73
2024/01/07 08:56:10;;;;;;;4.00;1.50;;;;;;;;;;4947918;28;20054;-73
2024/01/07 08:58:38;;;;;;;2.15;1.00;;;;;;;;;;4950320;28;20055;-73
2024/01/07 09:01:06;;;;;;;2.08;1.23;;;;;;;;;;4947971;28;20051;-73
2024/01/07 09:03:34;;;;;;;3.13;1.20;;;;;;;;;;4950385;28;20767;-73
2024/01/07 09:06:01;;;;;;;6.70;1.20;;;;;;;;;;4950507;28;20047;-73
2024/01/07 09:08:29;;;;;;;2.53;1.13;;;;;;;;;;4948375;28;20062;-73
2024/01/07 09:10:56;;;;;;;3.30;1.23;;;;;;;;;;4950382;28;20533;-73
2024/01/07 09:13:24;;;;;;;3.38;1.15;;;;;;;;;;4949646;28;20117;-74
2024/01/07 09:15:51;;;;;;;3.53;1.20;;;;;;;;;;4951632;28;20054;-73
2024/01/07 09:18:23;;;;;;;6.05;1.42;;;;;;;;;;4954644;28;20502;-73
2024/01/07 09:20:50;;;;;;;3.95;1.30;;;;;;;;;;4951766;28;20042;-73
2024/01/07 09:23:17;;;;;;;4.47;1.45;;;;;;;;;;4971064;28;20166;-73
2024/01/07 09:25:46;;;;;;;4.13;1.13;;;;;;;;;;4955628;28;20051;-73
2024/01/07 09:28:13;;;;;;;3.45;1.27;;;;;;;;;;4951974;28;20518;-73
2024/01/07 09:30:41;;;;;;;2.65;1.20;;;;;;;;;;4958597;28;20074;-73
2024/01/07 09:33:08;;;;;;;2.85;1.30;;;;;;;;;;4958032;28;20047;-73
2024/01/07 09:35:39;;;;;;;2.30;1.17;;;;;;;;;;4955078;28;20506;-73
2024/01/07 09:38:07;;;;;;;6.15;1.00;;;;;;;;;;4954981;28;21015;-73
2024/01/07 09:40:34;;;;;;;1.58;0.73;;;;;;;;;;4955537;28;20050;-73
2024/01/07 09:43:01;;;;;;;3.58;1.33;;;;;;;;;;4954631;28;20051;-73
2024/01/07 09:45:30;;;;;;;6.32;1.08;;;;;;;;;;4953942;28;20497;-73
2024/01/07 09:47:58;;;;;;;1.98;0.95;;;;;;;;;;4956323;28;20070;-73
2024/01/07 09:50:26;;;;;;;4.03;1.00;;;;;;;;;;4954369;28;20046;-73
2024/01/07 09:53:00;;;;;;;2.28;1.00;;;;;;;;;;4955905;28;20082;-73
2024/01/07 09:55:27;;;;;;;;;;;;;;;;;;4955623;28;20058;-73
2024/01/07 09:57:54;;;;;;;3.80;1.23;;;;;;;;;;4954409;28;19922;-73
2024/01/07 10:00:21;;;;;;;5.28;1.27;;;;;;;;;;4955050;28;20051;-73
2024/01/07 10:02:49;;;;;;;4.65;1.10;;;;;;;;;;4954807;28;20058;-73
2024/01/07 10:05:16;;;;;;;3.83;1.02;;;;;;;;;;4954186;28;20095;-73
2024/01/07 10:07:44;;;;;;;2.10;1.10;;;;;;;;;;4953427;28;20399;-73
2024/01/07 10:10:17;;;;;;;3.00;1.13;;;;;;;;;;4955899;28;20052;-73
2024/01/07 10:12:46;;;;;;;3.33;1.15;;;;;;;;;;4954272;28;20521;-73
2024/01/07 10:15:13;;;;;;;2.60;0.98;;;;;;;;;;4956016;28;20082;-74
2024/01/07 10:17:42;;;;;;;2.95;1.00;;;;;;;;;;4954624;28;20074;-73
2024/01/07 10:20:10;;;;;;;2.00;0.90;;;;;;;;;;4954754;28;20043;-73
2024/01/07 10:22:38;;;;;;;5.38;1.10;;;;;;;;;;4965994;28;20051;-73
2024/01/07 10:25:06;;;;;;;2.67;0.88;;;;;;;;;;4954219;28;20390;-73
2024/01/07 10:27:37;;;;;;;2.60;1.05;;;;;;;;;;4957007;28;20054;-74
2024/01/07 10:30:05;;;;;;;2.22;0.70;;;;;;;;;;4949100;28;20054;-73
2024/01/07 10:32:33;;;;;;;3.78;1.50;;;;;;;;;;4952426;28;20082;-73
2024/01/07 10:35:04;;;;;;;3.08;1.08;;;;;;;;;;4954345;28;20581;-73
2024/01/07 10:37:31;;;;;;;3.53;0.90;;;;;;;;;;4942852;28;20062;-74
2024/01/07 10:40:03;;;;;;;3.60;1.20;;;;;;;;;;4952017;28;20552;-73
2024/01/07 10:42:31;;;;;;;3.53;1.20;;;;;;;;;;4955405;28;20046;-74
2024/01/07 10:45:00;;;;;;;4.82;1.75;;;;;;;;;;4953454;28;20094;-74
2024/01/07 10:47:29;;;;;;;3.05;1.15;;;;;;;;;;4953130;28;20062;-74
2024/01/07 10:49:58;;;;;;;2.30;1.15;;;;;;;;;;4953705;28;20046;-73
2024/01/07 10:52:28;;;;;;;3.75;1.38;;;;;;;;;;4959730;28;20058;-73
2024/01/07 10:54:58;;;;;;;4.30;1.05;;;;;;;;;;4955096;28;20133;-74
2024/01/07 10:57:29;;;;;;;3.72;1.65;;;;;;;;;;4955999;28;20121;-73
2024/01/07 10:59:57;;;;;;;2.83;1.23;;;;;;;;;;4953577;28;20487;-73
2024/01/07 11:02:26;;;;;;;2.35;1.13;;;;;;;;;;4949885;28;20066;-73
2024/01/07 11:04:58;;;;;;;4.63;1.48;;;;;;;;;;4953146;28;20150;-73
2024/01/07 11:07:37;;;;;;;2.97;1.10;;;;;;;;;;4954807;28;20471;-74
2024/01/07 11:10:07;;;;;;;5.00;1.67;;;;;;;;;;4954786;28;20154;-74
2024/01/07 11:12:34;;;;;;;7.60;1.52;;;;;;;;;;4952792;28;20047;-74
2024/01/07 11:15:02;;;;;;;4.15;1.58;;;;;;;;;;4953086;28;20051;-73
2024/01/07 11:17:45;;;;;;;3.05;1.70;;;;;;;;;;4953860;28;20047;-74
2024/01/07 11:20:15;;;;;;;2.88;1.13;;;;;;;;;;4946345;28;20046;-74
2024/01/07 11:22:42;;;;;;;2.92;1.20;;;;;;;;;;4947298;28;20051;-74
2024/01/07 11:25:24;;;;;;;4.93;1.30;;;;;;;;;;4953587;28;20061;-73
2024/01/07 11:27:51;;;;;;;2.97;1.13;;;;;;;;;;4950413;28;20070;-73
2024/01/07 11:30:20;;;;;;;2.22;1.17;;;;;;;;;;4951870;28;20058;-74
2024/01/07 11:32:48;;;;;;;3.00;1.13;;;;;;;;;;4972234;28;20047;-74
2024/01/07 11:35:16;;;;;;;2.50;0.90;;;;;;;;;;4954631;28;20065;-73
2024/01/07 11:37:46;;;;;;;2.83;1.10;;;;;;;;;;4953110;28;20054;-73
2024/01/07 11:40:15;;;;;;;4.10;0.95;;;;;;;;;;4952872;28;20047;-74
2024/01/07 11:42:43;;;;;;;3.33;1.10;;;;;;;;;;4952028;28;20046;-73
2024/01/07 11:45:10;;;;;;;3.13;1.10;;;;;;;;;;4950584;28;20051;-74
2024/01/07 11:47:38;;;;;;;3.25;1.00;;;;;;;;;;4946919;28;20081;-73
2024/01/07 11:50:08;;;;;;;2.45;1.10;;;;;;;;;;4958832;28;20046;-74
2024/01/07 11:52:36;;;;;;;3.20;1.00;;;;;;;;;;4946147;28;20049;-74
2024/01/07 11:55:04;;;;;;;3.28;1.20;;;;;;;;;;4970162;28;20097;-73
2024/01/07 11:57:32;;;;;;;2.28;1.10;;;;;;;;;;4953387;28;21121;-74
2024/01/07 11:59:59;;;;;;;2.65;1.17;;;;;;;;;;4951598;28;20054;-73
2024/01/07 12:02:30;;;;;;;4.45;1.30;;;;;;;;;;4950547;28;20038;-73
2024/01/07 12:04:57;;;;;;;5.97;1.20;;;;;;;;;;4952267;28;20054;-73
2024/01/07 12:07:26;;;;;;;5.10;1.60;;;;;;;;;;4952710;28;20162;-73
2024/01/07 12:09:57;;;;;;;4.07;1.33;;;;;;;;;;4953645;28;20047;-73
2024/01/07 12:12:25;;;;;;;2.60;1.20;;;;;;;;;;4970498;28;20082;-74
2024/01/07 12:14:52;;;;;;;2.00;1.10;;;;;;;;;;4947804;28;20058;-73
2024/01/07 12:17:20;;;;;;;3.97;1.23;;;;;;;;;;4951775;28;20703;-73
2024/01/07 12:19:47;;;;;;;2.67;1.25;;;;;;;;;;4950851;28;20058;-73
2024/01/07 12:22:14;;;;;;;6.55;1.52;;;;;;;;;;4952244;28;20070;-73
2024/01/07 12:24:43;;;;;;;8.73;2.03;;;;;;;;;;4952802;28;20053;-73
2024/01/07 12:27:13;;;;;;;4.90;1.30;;;;;;;;;;4952594;28;20137;-73
2024/01/07 12:29:41;;;;;;;4.20;1.38;;;;;;;;;;4952229;28;20050;-73
2024/01/07 12:32:10;;;;;;;2.55;1.25;;;;;;;;;;4959289;28;20054;-74
2024/01/07 12:34:38;;;;;;;2.55;1.20;;;;;;;;;;4947229;28;20050;-73
2024/01/07 12:37:05;;;;;;;1.85;1.00;;;;;;;;;;4952538;28;20085;-73
2024/01/07 12:39:32;;;;;;;4.15;1.40;;;;;;;;;;4952148;28;20554;-73
2024/01/07 12:42:01;;;;;;;4.10;1.30;;;;;;;;;;4952422;28;20051;-74
2024/01/07 12:44:31;;;;;;;6.85;2.45;;;;;;;;;;4968717;28;20062;-73
2024/01/07 12:46:58;;;;;;;2.50;1.27;;;;;;;;;;4946991;28;20057;-73
2024/01/07 12:49:25;;;;;;;3.00;1.45;;;;;;;;;;4949709;28;20159;-73
2024/01/07 12:51:53;;;;;;;3.25;1.35;;;;;;;;;;4948929;28;20051;-73
2024/01/07 12:54:21;;;;;;;4.85;1.58;;;;;;;;;;4950139;28;20055;-73
2024/01/07 12:56:48;;;;;;;5.07;1.30;;;;;;;;;;4950501;28;20087;-74
2024/01/07 12:59:17;;;;;;;3.58;1.10;;;;;;;;;;4967948;28;20059;-74
2024/01/07 13:01:45;;;;;;;4.15;1.25;;;;;;;;;;4953249;28;20051;-73
2024/01/07 13:04:13;;;;;;;3.22;1.10;;;;;;;;;;4958467;28;20043;-74
2024/01/07 13:06:40;;;;;;;5.20;1.00;;;;;;;;;;4952249;28;20054;-74
2024/01/07 13:09:08;;;;;;;7.93;2.25;;;;;;;;;;4963042;28;20047;-73
2024/01/07 13:11:36;;;;;;;3.63;1.00;;;;;;;;;;4950781;28;20077;-74
2024/01/07 13:14:03;;;;;;;2.55;0.90;;;;;;;;;;4950300;28;20058;-74
2024/01/07 13:16:32;;;;;;;2.08;0.90;;;;;;;;;;4951692;28;20059;-73
2024/01/07 13:18:59;;;;;;;2.85;1.00;;;;;;;;;;4949162;28;20058;-73
2024/01/07 13:21:27;;;;;;;3.55;0.93;;;;;;;;;;4943237;28;21634;-73
2024/01/07 13:23:54;;;;;;;1.83;0.90;;;;;;;;;;4951139;28;20482;-73
2024/01/07 13:26:21;;;;;;;6.25;1.30;;;;;;;;;;4953525;28;20505;-74
2024/01/07 13:28:49;;;;;;;4.80;1.20;;;;;;;;;;4950465;28;20070;-74
2024/01/07 13:31:16;;;;;;;4.88;1.40;;;;;;;;;;4967163;28;20059;-74
2024/01/07 13:33:46;;;;;;;5.88;1.38;;;;;;;;;;4952183;28;20057;-74
2024/01/07 13:36:13;;;;;;;5.93;1.52;;;;;;;;;;4952297;28;20478;-73
2024/01/07 13:38:41;;;;;;;6.43;1.23;;;;;;;;;;4948440;28;20062;-74
2024/01/07 13:41:09;;;;;;;3.95;1.63;;;;;;;;;;4946199;28;20117;-72
2024/01/07 13:43:37;;;;;;;4.00;1.13;;;;;;;;;;4949425;28;20735;-70
2024/01/07 13:46:04;;;;;;;3.75;1.20;;;;;;;;;;4951217;28;20046;-77
2024/01/07 13:48:31;;;;;;;5.93;1.52;;;;;;;;;;4943841;28;20514;-71
2024/01/07 13:51:00;;;;;;;3.97;1.23;;;;;;;;;;4968605;28;20055;-70
2024/01/07 13:53:27;;;;;;;4.55;1.15;;;;;;;;;;4967166;28;20047;-72
2024/01/07 13:55:55;;;;;;;5.78;1.95;;;;;;;;;;4951820;28;20451;-71
2024/01/07 13:58:23;;;;;;;5.07;1.52;;;;;;;;;;4951831;28;20444;-71
2024/01/07 14:00:52;;;;;;;4.05;1.48;;;;;;;;;;4967942;28;20043;-72
2024/01/07 14:03:20;;;;;;;7.20;1.75;;;;;;;;;;4967722;28;20082;-71
2024/01/07 14:05:47;;;;;;;4.10;1.63;;;;;;;;;;4971792;28;20556;-71
2024/01/07 14:08:16;;;;;;;4.88;1.30;;;;;;;;;;4966478;28;20069;-72
2024/01/07 14:10:43;;;;;;;4.63;1.60;;;;;;;;;;4964898;28;20047;-71
2024/01/07 14:13:10;;;;;;;5.72;1.50;;;;;;;;;;4953681;28;20510;-71
2024/01/07 14:15:38;;;;;;;7.90;1.38;;;;;;;;;;4970814;28;20066;-72
2024/01/07 14:18:06;;;;;;;4.63;1.38;;;;;;;;;;4953170;28;20050;-72
2024/01/07 14:20:33;;;;;;;6.15;1.58;;;;;;;;;;4969784;28;20141;-72
2024/01/07 14:23:00;;;;;;;4.65;2.13;;;;;;;;;;4967824;28;20050;-72
2024/01/07 14:25:29;;;;;;;1.95;1.02;;;;;;;;;;4950241;28;20149;-73
2024/01/07 14:27:56;;;;;;;4.75;1.10;;;;;;;;;;4955882;28;20478;-75
2024/01/07 14:30:24;;;;;;;3.88;1.23;;;;;;;;;;4961912;28;20516;-73
2024/01/07 14:32:51;;;;;;;5.80;1.35;;;;;;;;;;4954162;28;20053;-73
2024/01/07 14:35:18;;;;;;;3.55;1.20;;;;;;;;;;4972137;28;20058;-73
2024/01/07 14:37:45;;;;;;;5.43;0.98;;;;;;;;;;4953068;28;20051;-73
2024/01/07 14:40:13;;;;;;;7.70;1.67;;;;;;;;;;4955533;28;20055;-72
2024/01/07 14:42:43;;;;;;;5.40;1.30;;;;;;;;;;4953362;28;20046;-73
2024/01/07 14:45:11;;;;;;;4.45;1.08;;;;;;;;;;4969698;28;20058;-73
2024/01/07 14:47:38;;;;;;;5.80;1.10;;;;;;;;;;4953080;28;20058;-72